»·PEaware :: N7375Q KTOA-0O2

N7375Q :: KTOA-0O2

FLIGHT INFORMATION

Flight Status: Arrived
Operator: Privately registered:
United States
More flights under this callsign
Pilot: Ion I. (24133)
Aircraft: SOCATA TBM-900
(TBM9)
More flights by this aircraft type
Origin: KTOA Zamperini
United States
Destination: 0O2 Baker
United States
More flights between these airports :: More routes between these airports
Route: LIMBO HAWWC HASSA DAG
File this flight plan on PilotEdge
Remarks:
Altitude:
(Current/Filed)
23,000ft
Speed:
(Current/Filed)
250kts
Departed: 31-Jul-20 12:20 PM
Arrived: 31-Jul-20 01:04 PM
Distance/Time
Traveled:
143nm/0:43
Distance/Time
To Go:
Arrived

Flight Plot

Page will automatically refresh every two minutes.

Flight plan parsing failed; only flown route is shown


Map Options




Map Legend


Flown Route
Filed Route
Departure Airport
Arrival Airport
Navaid (VOR, NDB)
Fix

Horizontal Profiles

Position Reports

Time Latitude Longitude Heading Altitude Ground
Speed
31-Jul-20 12:07 33.801646 -118.341479 39 102ft 0kts
31-Jul-20 12:08 33.801646 -118.341479 39 102ft 0kts
31-Jul-20 12:09 33.801646 -118.341479 39 102ft 0kts
31-Jul-20 12:10 33.801646 -118.341479 39 102ft 0kts
31-Jul-20 12:11 33.801646 -118.341479 39 102ft 0kts
31-Jul-20 12:12 33.801646 -118.341479 39 102ft 0kts
31-Jul-20 12:13 33.801646 -118.341479 39 102ft 0kts
31-Jul-20 12:14 33.801672 -118.341451 47 101ft 1kts
31-Jul-20 12:15 33.801020 -118.340240 124 103ft 6kts
31-Jul-20 12:16 33.800476 -118.338214 128 103ft 7kts
31-Jul-20 12:17 33.799108 -118.336134 127 103ft 8kts
31-Jul-20 12:18 33.798086 -118.334230 43 104ft 9kts
31-Jul-20 12:19 33.800777 -118.334679 308 100ft 44kts
31-Jul-20 12:20 33.816184 -118.356282 307 1348ft 83kts
31-Jul-20 12:21 33.834440 -118.383177 306 2963ft 136kts
31-Jul-20 12:22 33.861239 -118.428579 283 2985ft 170kts
31-Jul-20 12:23 33.828982 -118.436703 142 4592ft 175kts
31-Jul-20 12:24 33.791688 -118.399237 142 6936ft 172kts
31-Jul-20 12:26 33.757114 -118.361547 141 9407ft 168kts
31-Jul-20 12:27 33.723885 -118.322481 132 11954ft 170kts
31-Jul-20 12:28 33.747054 -118.275658 41 14435ft 179kts
31-Jul-20 12:29 33.791550 -118.229545 41 15112ft 247kts
31-Jul-20 12:30 33.838698 -118.180067 41 17513ft 208kts
31-Jul-20 12:31 33.879421 -118.137159 41 19875ft 177kts
31-Jul-20 12:32 33.913346 -118.101201 41 21820ft 169kts
31-Jul-20 12:33 33.953543 -118.058276 41 23066ft 235kts
31-Jul-20 12:34 34.008888 -117.996901 52 22992ft 290kts
31-Jul-20 12:35 34.061178 -117.919292 50 23005ft 303kts
31-Jul-20 12:36 34.115436 -117.839933 50 23000ft 307kts
31-Jul-20 12:37 34.169932 -117.760084 50 22999ft 308kts
31-Jul-20 12:38 34.224463 -117.680009 50 22999ft 308kts
31-Jul-20 12:39 34.278847 -117.599970 50 22999ft 308kts
31-Jul-20 12:39 34.324426 -117.532750 50 23000ft 308kts
31-Jul-20 12:41 34.387650 -117.439299 50 23001ft 308kts
31-Jul-20 12:42 34.441974 -117.358801 50 23001ft 308kts
31-Jul-20 12:43 34.496307 -117.278117 51 22999ft 308kts
31-Jul-20 12:43 34.541553 -117.210784 51 22999ft 308kts
31-Jul-20 12:45 34.604515 -117.116867 50 22999ft 308kts
31-Jul-20 12:46 34.658499 -117.036149 50 23051ft 306kts
31-Jul-20 12:46 34.703312 -116.969000 50 23100ft 305kts
31-Jul-20 12:47 34.757194 -116.888097 50 22213ft 324kts
31-Jul-20 12:49 34.825531 -116.785258 51 18741ft 342kts
31-Jul-20 12:49 34.875552 -116.709737 51 16236ft 344kts
31-Jul-20 12:50 34.935302 -116.619334 51 13242ft 342kts
31-Jul-20 12:51 34.993445 -116.530899 51 10244ft 314kts
31-Jul-20 12:52 35.041763 -116.457139 50 9016ft 230kts
31-Jul-20 12:53 35.079089 -116.393575 63 6861ft 237kts
31-Jul-20 12:54 35.106217 -116.324444 67 4891ft 225kts
31-Jul-20 12:55 35.125277 -116.255639 71 3525ft 185kts
31-Jul-20 12:56 35.140515 -116.207029 63 2493ft 131kts
31-Jul-20 12:57 35.161190 -116.180906 20 1943ft 106kts
31-Jul-20 12:58 35.186043 -116.163791 40 2017ft 104kts
31-Jul-20 12:59 35.205473 -116.136428 48 2161ft 111kts
31-Jul-20 13:00 35.224965 -116.106882 47 2393ft 114kts
31-Jul-20 13:01 35.247150 -116.081306 48 2091ft 104kts
31-Jul-20 13:02 35.271933 -116.076828 336 1272ft 90kts
31-Jul-20 13:03 35.287784 -116.081579 45 923ft 1kts
31-Jul-20 13:04 35.287641 -116.081246 258 924ft 0kts
31-Jul-20 13:05 35.287641 -116.081247 258 925ft 0kts
31-Jul-20 13:06 35.287641 -116.081246 258 924ft 0kts
31-Jul-20 13:07 35.287641 -116.081246 258 924ft 0kts
31-Jul-20 13:08 35.287641 -116.081246 258 924ft 0kts
31-Jul-20 13:09 35.287641 -116.081246 258 924ft 0kts
31-Jul-20 13:10 35.287641 -116.081246 258 924ft 0kts
31-Jul-20 13:11 35.287641 -116.081246 258 924ft 0kts
31-Jul-20 13:12 35.287641 -116.081246 258 924ft 0kts
31-Jul-20 13:13 35.287641 -116.081246 258 924ft 0kts
31-Jul-20 13:14 35.287641 -116.081246 258 924ft 0kts
31-Jul-20 13:15 35.287641 -116.081246 258 924ft 0kts
31-Jul-20 13:16 35.287641 -116.081246 258 924ft 0kts
31-Jul-20 13:17 35.287641 -116.081246 258 924ft 0kts

Navigation Log

Ident Type
Flight plan parsing failed, navigation log unavailable